createdAt,value
2022-09-15T00:02:12.999Z,19
2022-09-15T00:04:47.227Z,21
2022-09-15T00:07:21.239Z,24
2022-09-15T00:09:54.774Z,20
2022-09-15T00:12:27.240Z,19
2022-09-15T00:14:59.647Z,16
2022-09-15T00:17:33.207Z,20
2022-09-15T00:20:07.067Z,21
2022-09-15T00:22:42.454Z,20
2022-09-15T00:25:13.630Z,23
2022-09-15T00:27:46.323Z,21
2022-09-15T00:30:19.144Z,22
2022-09-15T00:32:52.104Z,21
2022-09-15T00:35:24.737Z,24
2022-09-15T00:37:58.678Z,28
2022-09-15T00:40:31.841Z,17
2022-09-15T00:43:04.488Z,16
2022-09-15T00:45:37.294Z,19
2022-09-15T00:48:09.774Z,20
2022-09-15T00:50:42.522Z,17
2022-09-15T00:53:14.896Z,20
2022-09-15T00:55:47.499Z,20
2022-09-15T00:58:20.082Z,16
2022-09-15T01:00:52.767Z,19
2022-09-15T01:03:26.025Z,18
2022-09-15T01:05:58.050Z,17
2022-09-15T01:08:31.850Z,16
2022-09-15T01:11:08.020Z,15
2022-09-15T01:13:41.966Z,17
2022-09-15T01:16:17.367Z,16
2022-09-15T01:18:50.033Z,20
2022-09-15T01:21:23.445Z,16
2022-09-15T01:23:56.093Z,17
2022-09-15T01:26:28.785Z,23
2022-09-15T01:29:01.519Z,22
2022-09-15T01:31:37.442Z,18
2022-09-15T01:34:09.247Z,19
2022-09-15T01:36:43.265Z,20
2022-09-15T01:39:16.245Z,20
2022-09-15T01:41:49.304Z,18
2022-09-15T01:44:22.116Z,23
2022-09-15T01:46:54.979Z,20
2022-09-15T01:49:29.210Z,19
2022-09-15T01:52:02.556Z,16
2022-09-15T01:54:34.994Z,16
2022-09-15T01:57:07.604Z,16
2022-09-15T01:59:40.004Z,19
2022-09-15T02:02:12.523Z,15
2022-09-15T02:04:52.073Z,16
2022-09-15T02:07:23.040Z,16
2022-09-15T02:09:58.522Z,16
2022-09-15T02:12:31.809Z,14
2022-09-15T02:15:04.523Z,15
2022-09-15T02:17:37.171Z,12
2022-09-15T02:20:09.909Z,13
2022-09-15T02:22:42.961Z,16
2022-09-15T02:25:16.624Z,12
2022-09-15T02:27:49.350Z,12
2022-09-15T02:30:21.673Z,16
2022-09-15T02:32:54.009Z,17
2022-09-15T02:35:26.715Z,21
2022-09-15T02:37:59.182Z,20
2022-09-15T02:40:33.361Z,23
2022-09-15T02:43:06.454Z,22
2022-09-15T02:45:38.437Z,20
2022-09-15T02:48:10.779Z,23
2022-09-15T02:50:44.169Z,22
2022-09-15T02:53:15.909Z,20
2022-09-15T02:55:48.079Z,17
2022-09-15T02:58:22.349Z,20
2022-09-15T03:00:55.533Z,16
2022-09-15T03:03:30.105Z,19
2022-09-15T03:06:04.055Z,15
2022-09-15T03:08:39.263Z,19
2022-09-15T03:11:10.779Z,17
2022-09-15T03:13:47.332Z,16
2022-09-15T03:16:20.584Z,20
2022-09-15T03:18:54.371Z,18
2022-09-15T03:21:28.635Z,17
2022-09-15T03:24:01.322Z,16
2022-09-15T03:26:33.959Z,20
2022-09-15T03:29:07.959Z,19
2022-09-15T03:31:40.909Z,17
2022-09-15T03:34:13.605Z,21
2022-09-15T03:36:46.203Z,17
2022-09-15T03:39:20.010Z,17
2022-09-15T03:42:04.798Z,16
2022-09-15T03:44:38.474Z,17
2022-09-15T03:47:10.913Z,19
2022-09-15T03:49:43.601Z,17
2022-09-15T03:52:16.522Z,24
2022-09-15T03:54:48.957Z,17
2022-09-15T03:57:21.681Z,17
2022-09-15T03:59:54.545Z,19
2022-09-15T04:02:30.431Z,19
2022-09-15T04:05:03.853Z,16
2022-09-15T04:07:36.723Z,28
2022-09-15T04:10:09.212Z,18
2022-09-15T04:12:47.338Z,20
2022-09-15T04:15:18.545Z,17
2022-09-15T04:17:51.304Z,21
2022-09-15T04:20:24.045Z,19
2022-09-15T04:22:57.323Z,20
2022-09-15T04:25:31.247Z,14
2022-09-15T04:28:05.158Z,18
2022-09-15T04:30:37.863Z,18
2022-09-15T04:33:10.729Z,27
2022-09-15T04:35:46.288Z,24
2022-09-15T04:38:17.790Z,17
2022-09-15T04:40:50.569Z,24
2022-09-15T04:43:22.989Z,24
2022-09-15T04:45:55.869Z,25
2022-09-15T04:48:28.461Z,25
2022-09-15T04:51:03.499Z,26
2022-09-15T04:53:36.143Z,24
2022-09-15T04:56:08.553Z,20
2022-09-15T04:58:41.399Z,25
2022-09-15T05:01:14.621Z,24
2022-09-15T05:03:47.615Z,25
2022-09-15T05:06:21.300Z,21
2022-09-15T05:08:54.344Z,27
2022-09-15T05:11:27.969Z,24
2022-09-15T05:14:00.784Z,27
2022-09-15T05:16:33.286Z,20
2022-09-15T05:19:05.661Z,23
2022-09-15T05:21:38.384Z,28
2022-09-15T05:24:10.802Z,25
2022-09-15T05:26:43.758Z,19
2022-09-15T05:29:16.133Z,16
2022-09-15T05:31:49.172Z,16
2022-09-15T05:34:22.878Z,19
2022-09-15T05:36:56.446Z,24
2022-09-15T05:39:28.453Z,25
2022-09-15T05:42:01.005Z,28
2022-09-15T05:44:36.665Z,24
2022-09-15T05:47:08.043Z,24
2022-09-15T05:49:40.713Z,24
2022-09-15T05:52:14.104Z,23
2022-09-15T05:54:48.003Z,24
2022-09-15T05:57:20.838Z,20
2022-09-15T05:59:54.193Z,32
2022-09-15T06:02:26.838Z,20
2022-09-15T06:05:04.886Z,25
2022-09-15T06:07:36.827Z,25
2022-09-15T06:10:15.138Z,35
2022-09-15T06:12:49.528Z,31
2022-09-15T06:15:21.582Z,27
2022-09-15T06:17:55.163Z,32
2022-09-15T06:20:29.164Z,37
2022-09-15T06:23:01.737Z,29
2022-09-15T06:25:34.899Z,26
2022-09-15T06:28:07.643Z,32
2022-09-15T06:30:40.219Z,34
2022-09-15T06:33:14.225Z,30
2022-09-15T06:35:47.034Z,40
2022-09-15T06:38:22.627Z,43
2022-09-15T06:40:54.068Z,58
2022-09-15T06:43:26.852Z,57
2022-09-15T06:45:59.302Z,48
2022-09-15T06:48:32.177Z,39
2022-09-15T06:51:06.160Z,28
2022-09-15T06:53:41.351Z,31
2022-09-15T06:56:15.690Z,31
2022-09-15T06:58:48.466Z,31
2022-09-15T07:01:21.189Z,25
2022-09-15T07:03:54.152Z,29
2022-09-15T07:06:26.747Z,23
2022-09-15T07:09:01.193Z,24
2022-09-15T07:11:34.039Z,24
2022-09-15T07:14:08.123Z,25
2022-09-15T07:16:41.209Z,35
2022-09-15T07:19:15.451Z,48
2022-09-15T07:21:48.307Z,38
2022-09-15T07:24:21.174Z,37
2022-09-15T07:26:55.450Z,23
2022-09-15T07:29:28.174Z,31
2022-09-15T07:32:00.982Z,31
2022-09-15T07:34:33.565Z,20
2022-09-15T07:37:06.172Z,17
2022-09-15T07:39:38.702Z,23
2022-09-15T07:42:11.486Z,21
2022-09-15T07:44:44.320Z,17
2022-09-15T07:47:18.174Z,22
2022-09-15T07:49:50.592Z,32
2022-09-15T07:52:23.892Z,21
2022-09-15T07:54:56.796Z,32
2022-09-15T07:57:29.606Z,23
2022-09-15T08:00:02.669Z,31
2022-09-15T08:02:35.561Z,30
2022-09-15T08:05:08.801Z,38
2022-09-15T08:07:41.458Z,26
2022-09-15T08:10:14.276Z,27
2022-09-15T08:12:47.171Z,21
2022-09-15T08:15:19.752Z,23
2022-09-15T08:17:52.240Z,17
2022-09-15T08:20:24.703Z,21
2022-09-15T08:22:57.439Z,17
2022-09-15T08:25:29.907Z,17
2022-09-15T08:28:02.313Z,19
2022-09-15T08:30:34.489Z,12
2022-09-15T08:33:07.232Z,16
2022-09-15T08:35:39.744Z,13
2022-09-15T08:38:12.557Z,20
2022-09-15T08:40:44.667Z,17
2022-09-15T08:43:17.294Z,17
2022-09-15T08:45:52.161Z,23
2022-09-15T08:48:24.386Z,21
2022-09-15T08:50:58.686Z,19
2022-09-15T08:53:29.891Z,19
2022-09-15T08:56:02.206Z,17
2022-09-15T08:58:34.244Z,16
2022-09-15T09:01:06.913Z,20
2022-09-15T09:03:42.245Z,15
2022-09-15T09:06:16.202Z,32
2022-09-15T09:08:47.646Z,35
2022-09-15T09:11:19.753Z,27
2022-09-15T09:13:52.171Z,26
2022-09-15T09:16:25.129Z,22
2022-09-15T09:18:57.689Z,31
2022-09-15T09:21:30.084Z,38
2022-09-15T09:24:02.778Z,20
2022-09-15T09:26:34.857Z,22
2022-09-15T09:29:07.567Z,19
2022-09-15T09:31:39.983Z,21
2022-09-15T09:34:11.451Z,17
2022-09-15T09:36:43.427Z,19
2022-09-15T09:39:16.366Z,8
2022-09-15T09:41:48.961Z,24
2022-09-15T09:44:21.060Z,15
2022-09-15T09:47:18.668Z,19
2022-09-15T09:50:01.445Z,19
2022-09-15T09:52:35.187Z,14
2022-09-15T09:55:10.203Z,26
2022-09-15T09:57:42.782Z,16
2022-09-15T10:00:16.152Z,12
2022-09-15T10:02:48.900Z,11
2022-09-15T10:08:01.283Z,16
2022-09-15T10:10:38.750Z,8
2022-09-15T10:13:13.260Z,19
2022-09-15T10:15:44.858Z,17
2022-09-15T10:18:16.885Z,15
2022-09-15T10:20:55.761Z,16
2022-09-15T10:23:25.916Z,38
2022-09-15T10:26:00.917Z,16
2022-09-15T10:28:32.873Z,12
2022-09-15T10:31:05.443Z,27
2022-09-15T10:33:38.019Z,18
2022-09-15T10:36:09.332Z,16
2022-09-15T10:38:42.919Z,16
2022-09-15T10:41:14.941Z,12
2022-09-15T10:43:49.607Z,20
2022-09-15T10:46:21.398Z,16
2022-09-15T10:48:53.726Z,15
2022-09-15T10:51:26.343Z,13
2022-09-15T10:54:00.929Z,15
2022-09-15T10:56:33.029Z,15
2022-09-15T10:59:05.609Z,16
2022-09-15T11:01:37.876Z,70
2022-09-15T11:04:13.160Z,44
2022-09-15T11:06:44.664Z,27
2022-09-15T11:09:17.214Z,15
2022-09-15T11:11:49.159Z,20
2022-09-15T11:14:21.892Z,16
2022-09-15T11:16:54.863Z,20
2022-09-15T11:19:27.340Z,16
2022-09-15T11:21:59.381Z,17
2022-09-15T11:24:32.285Z,19
2022-09-15T11:27:05.954Z,15
2022-09-15T11:29:39.368Z,17
2022-09-15T11:32:11.276Z,12
2022-09-15T11:34:43.780Z,12
2022-09-15T11:37:16.050Z,20
2022-09-15T11:39:53.382Z,12
2022-09-15T11:42:24.683Z,15
2022-09-15T11:44:55.801Z,20
2022-09-15T11:47:34.055Z,10
2022-09-15T11:50:06.501Z,13
2022-09-15T11:52:39.111Z,12
2022-09-15T11:55:11.792Z,12
2022-09-15T11:57:44.767Z,11
2022-09-15T12:00:17.389Z,12
2022-09-15T12:02:50.357Z,12
2022-09-15T12:05:21.797Z,16
2022-09-15T12:07:56.651Z,19
2022-09-15T12:10:28.815Z,16
2022-09-15T12:13:02.187Z,14
2022-09-15T12:15:35.984Z,15
2022-09-15T12:18:42.823Z,16
2022-09-15T12:21:17.430Z,17
2022-09-15T12:23:52.713Z,12
2022-09-15T12:26:25.166Z,20
2022-09-15T12:28:58.128Z,16
2022-09-15T12:31:31.659Z,12
2022-09-15T12:34:04.653Z,27
2022-09-15T12:36:37.346Z,19
2022-09-15T12:39:12.467Z,19
2022-09-15T12:41:47.469Z,17
2022-09-15T12:44:19.455Z,15
2022-09-15T12:46:51.741Z,17
2022-09-15T12:49:24.606Z,11
2022-09-15T12:51:57.349Z,12
2022-09-15T12:54:29.766Z,11
2022-09-15T12:57:04.301Z,13
2022-09-15T12:59:36.566Z,15
2022-09-15T13:02:11.403Z,17
2022-09-15T13:04:45.007Z,16
2022-09-15T13:07:17.672Z,12
2022-09-15T13:09:48.729Z,16
2022-09-15T13:12:21.665Z,16
2022-09-15T13:14:54.124Z,19
2022-09-15T13:17:26.682Z,20
2022-09-15T13:19:59.463Z,16
2022-09-15T13:22:33.408Z,17
2022-09-15T13:25:06.649Z,20
2022-09-15T13:27:45.013Z,20
2022-09-15T13:30:16.383Z,19
2022-09-15T13:32:48.891Z,15
2022-09-15T13:35:22.106Z,15
2022-09-15T13:38:23.934Z,18
2022-09-15T13:41:02.149Z,12
2022-09-15T13:46:20.170Z,13
2022-09-15T13:48:52.566Z,20
2022-09-15T13:51:25.355Z,19
2022-09-15T13:53:58.572Z,20
2022-09-15T13:56:30.781Z,23
2022-09-15T13:59:17.053Z,24
2022-09-15T14:01:53.817Z,12
2022-09-15T14:04:26.279Z,20
2022-09-15T14:07:02.098Z,17
2022-09-15T14:09:33.778Z,16
2022-09-15T14:12:06.194Z,17
2022-09-15T14:14:38.515Z,17
2022-09-15T14:17:11.022Z,23
2022-09-15T14:19:43.804Z,24
2022-09-15T14:22:14.970Z,20
2022-09-15T14:24:46.766Z,20
2022-09-15T14:27:19.095Z,20
2022-09-15T14:29:51.521Z,19
2022-09-15T14:32:24.090Z,29
2022-09-15T14:34:56.487Z,24
2022-09-15T14:37:29.029Z,19
2022-09-15T14:40:03.782Z,19
2022-09-15T14:42:36.336Z,21
2022-09-15T14:46:04.837Z,24
2022-09-15T14:48:40.382Z,22
2022-09-15T14:51:12.481Z,19
2022-09-15T14:53:46.803Z,18
2022-09-15T14:56:19.132Z,31
2022-09-15T14:58:50.689Z,36
2022-09-15T15:01:23.541Z,58
2022-09-15T15:03:59.140Z,40
2022-09-15T15:06:31.100Z,75
2022-09-15T20:57:19.765Z,20
2022-09-15T20:59:52.015Z,12
2022-09-15T21:02:24.787Z,45
2022-09-15T21:04:57.403Z,24
2022-09-15T21:07:30.011Z,16
2022-09-15T21:10:02.675Z,16
2022-09-15T21:12:38.370Z,14
2022-09-15T21:15:10.706Z,11
2022-09-15T21:17:43.332Z,13
2022-09-15T21:20:15.970Z,19
2022-09-15T21:22:48.220Z,12
2022-09-15T21:25:20.989Z,12
2022-09-15T21:27:53.831Z,14
2022-09-15T21:30:26.983Z,12
2022-09-15T21:32:59.742Z,12
2022-09-15T21:35:34.846Z,13
2022-09-15T21:38:09.436Z,10
2022-09-15T21:40:42.006Z,8
2022-09-15T21:43:14.576Z,11
2022-09-15T21:45:47.266Z,8
2022-09-15T21:48:19.580Z,9
2022-09-15T21:50:52.264Z,11
2022-09-15T21:53:25.045Z,11
2022-09-15T21:55:57.581Z,9
2022-09-15T21:58:30.511Z,9
2022-09-15T22:01:03.267Z,11
2022-09-15T22:03:36.272Z,16
2022-09-15T22:06:09.325Z,11
2022-09-15T22:08:42.222Z,10
2022-09-15T22:11:14.702Z,9
2022-09-15T22:13:47.504Z,8
2022-09-15T22:16:20.515Z,7
2022-09-15T22:18:51.730Z,11
2022-09-15T22:21:24.446Z,7
2022-09-15T22:23:57.209Z,8
2022-09-15T22:26:29.753Z,9
2022-09-15T22:29:02.459Z,7
2022-09-15T22:31:35.555Z,11
2022-09-15T22:34:08.748Z,8
2022-09-15T22:36:41.382Z,9
2022-09-15T22:39:14.033Z,8
2022-09-15T22:41:48.642Z,8
2022-09-15T22:44:22.817Z,9
2022-09-15T22:46:58.509Z,7
2022-09-15T22:49:30.099Z,9
2022-09-15T22:52:02.652Z,8
2022-09-15T22:54:35.367Z,8
2022-09-15T22:57:10.968Z,8
2022-09-15T22:59:42.037Z,8
2022-09-15T23:02:14.823Z,8
2022-09-15T23:04:47.210Z,7
2022-09-15T23:07:22.823Z,8
2022-09-15T23:09:57.195Z,4
2022-09-15T23:12:35.333Z,4
2022-09-15T23:15:07.911Z,7
2022-09-15T23:17:40.487Z,8
2022-09-15T23:20:12.088Z,11
2022-09-15T23:22:44.407Z,8
2022-09-15T23:25:17.027Z,9
2022-09-15T23:27:49.303Z,8
2022-09-15T23:30:21.394Z,5
2022-09-15T23:32:54.367Z,8
2022-09-15T23:35:26.833Z,12
2022-09-15T23:37:58.880Z,12
2022-09-15T23:40:32.930Z,6
2022-09-15T23:43:07.900Z,9
2022-09-15T23:45:43.231Z,11
2022-09-15T23:48:16.696Z,5
2022-09-15T23:50:48.951Z,4
2022-09-15T23:53:21.788Z,8
2022-09-15T23:55:54.446Z,4
2022-09-15T23:58:26.467Z,4
